Time;durP1;ratioP1;P1;durP2;ratioP2;P2;SDS_P1;SDS_P2;PMS_P1;PMS_P2;Temp;Humidity;BMP_temperature;BMP_pressure;BME280_temperature;BME280_humidity;BME280_pressure;Samples;Min_cycle;Max_cycle;Signal;HPM_P1;HPM_P2
2021/06/24 00:00:50;;;;;;;11.18;8.32;;;17.10;99.90;;;;;;4970138;28;20086;-87
2021/06/24 00:03:16;;;;;;;11.50;8.50;;;17.10;99.90;;;;;;4970748;28;20039;-86
2021/06/24 00:05:43;;;;;;;14.10;9.35;;;17.10;99.90;;;;;;4939054;28;20067;-86
2021/06/24 00:08:10;;;;;;;11.98;8.48;;;17.10;99.90;;;;;;4951140;28;20041;-87
2021/06/24 00:10:38;;;;;;;11.77;8.38;;;17.10;99.90;;;;;;4970155;28;20046;-87
2021/06/24 00:13:04;;;;;;;11.32;8.45;;;17.10;99.90;;;;;;4970480;28;20256;-87
2021/06/24 00:15:30;;;;;;;11.27;8.00;;;17.10;99.90;;;;;;4971061;28;20426;-87
2021/06/24 00:17:56;;;;;;;12.52;8.38;;;17.10;99.90;;;;;;4955020;28;20545;-87
2021/06/24 00:20:22;;;;;;;10.57;8.57;;;17.10;99.90;;;;;;4949057;28;20114;-87
2021/06/24 00:22:48;;;;;;;9.35;7.70;;;17.10;99.90;;;;;;4952303;28;20024;-88
2021/06/24 00:25:14;;;;;;;10.38;7.85;;;17.10;99.90;;;;;;4964944;28;20181;-88
2021/06/24 00:27:40;;;;;;;9.13;6.88;;;17.10;99.90;;;;;;4976105;28;20033;-88
2021/06/24 00:30:07;;;;;;;11.00;7.05;;;17.10;99.90;;;;;;4977749;28;20042;-88
2021/06/24 00:32:33;;;;;;;8.55;7.20;;;17.00;99.90;;;;;;4974888;28;20037;-88
2021/06/24 00:35:01;;;;;;;9.27;7.40;;;17.00;99.90;;;;;;4959424;28;20031;-89
2021/06/24 00:37:28;;;;;;;10.82;7.65;;;17.00;99.90;;;;;;4959302;28;20503;-89
2021/06/24 00:39:53;;;;;;;10.27;7.80;;;16.90;99.90;;;;;;4970690;28;20536;-89
2021/06/24 00:42:20;;;;;;;9.05;6.95;;;16.90;99.90;;;;;;4974948;28;20089;-89
2021/06/24 00:44:46;;;;;;;9.50;7.28;;;16.90;99.90;;;;;;4971837;28;20035;-89
2021/06/24 00:47:12;;;;;;;10.68;8.00;;;16.80;99.90;;;;;;4935345;28;20047;-89
2021/06/24 00:49:38;;;;;;;10.55;7.68;;;16.80;99.90;;;;;;4950250;28;20026;-89
2021/06/24 00:52:04;;;;;;;9.10;7.60;;;16.80;99.90;;;;;;4966777;28;20545;-89
2021/06/24 00:54:30;;;;;;;9.48;7.22;;;16.80;99.90;;;;;;4943044;28;20038;-89
2021/06/24 00:56:56;;;;;;;11.55;7.68;;;16.80;99.90;;;;;;4958812;28;20031;-89
2021/06/24 00:59:23;;;;;;;10.27;7.93;;;16.80;99.90;;;;;;4973567;28;20481;-88
2021/06/24 01:01:49;;;;;;;10.10;8.02;;;16.70;99.90;;;;;;4938973;28;20046;-89
2021/06/24 01:04:21;;;;;;;9.32;7.47;;;16.70;99.90;;;;;;4939114;29;20036;-89
2021/06/24 01:06:48;;;;;;;9.57;7.93;;;16.70;99.90;;;;;;4943579;28;20027;-89
2021/06/24 01:09:15;;;;;;;9.95;7.75;;;16.70;99.90;;;;;;4957968;28;20058;-88
2021/06/24 01:11:41;;;;;;;10.13;7.68;;;16.70;99.90;;;;;;4974353;28;20545;-89
2021/06/24 01:14:08;;;;;;;9.10;7.38;;;16.70;99.90;;;;;;4974065;28;20030;-88
2021/06/24 01:16:36;;;;;;;10.75;8.02;;;16.70;99.90;;;;;;4958283;28;20548;-89
2021/06/24 01:19:02;;;;;;;10.30;7.95;;;16.70;99.90;;;;;;4974184;28;20481;-89
2021/06/24 01:21:28;;;;;;;10.00;7.97;;;16.80;99.90;;;;;;4958287;28;20033;-89
2021/06/24 01:23:55;;;;;;;9.95;7.63;;;16.80;99.90;;;;;;4949091;29;20042;-88
2021/06/24 01:26:21;;;;;;;10.90;8.32;;;16.80;99.90;;;;;;4955236;28;20027;-88
2021/06/24 01:28:48;;;;;;;13.65;8.63;;;16.80;99.90;;;;;;4952711;28;20034;-89
2021/06/24 01:31:15;;;;;;;10.95;8.07;;;16.80;99.90;;;;;;4957992;28;20509;-89
2021/06/24 01:33:41;;;;;;;9.82;7.90;;;16.80;99.90;;;;;;4951277;28;20031;-89
2021/06/24 01:36:08;;;;;;;10.57;7.18;;;16.80;99.90;;;;;;4967302;28;20038;-88
2021/06/24 01:38:39;;;;;;;13.05;8.80;;;16.80;99.90;;;;;;4954477;28;20037;-89
2021/06/24 01:41:17;;;;;;;13.20;9.45;;;16.70;99.90;;;;;;4952790;28;20163;-88
2021/06/24 01:43:43;;;;;;;11.90;8.88;;;16.80;99.90;;;;;;4932355;28;20126;-88
2021/06/24 01:46:10;;;;;;;16.80;9.90;;;16.80;99.90;;;;;;4969530;28;20621;-89
2021/06/24 01:48:37;;;;;;;13.52;9.25;;;16.80;99.90;;;;;;4944561;29;20214;-89
2021/06/24 01:51:04;;;;;;;15.25;9.85;;;16.80;99.90;;;;;;4954301;29;20063;-89
2021/06/24 01:53:30;;;;;;;13.77;9.40;;;16.80;99.90;;;;;;4950493;28;20023;-89
2021/06/24 01:55:58;;;;;;;15.75;9.77;;;16.80;99.90;;;;;;4956920;28;20015;-87
2021/06/24 01:58:27;;;;;;;18.27;10.85;;;16.80;99.90;;;;;;4942775;28;20027;-87
2021/06/24 02:01:14;;;;;;;12.88;9.63;;;16.80;99.90;;;;;;4968291;28;20414;-87
2021/06/24 02:03:47;;;;;;;15.88;9.57;;;16.70;99.90;;;;;;4954366;28;20093;-87
2021/06/24 02:06:13;;;;;;;15.43;10.32;;;16.60;99.90;;;;;;4957811;28;20050;-87
2021/06/24 02:08:42;;;;;;;15.43;10.30;;;16.60;99.90;;;;;;4957988;28;20035;-87
2021/06/24 02:11:42;;;;;;;14.00;9.77;;;16.60;99.90;;;;;;4967379;28;20070;-87
2021/06/24 02:14:09;;;;;;;13.77;9.55;;;16.60;99.90;;;;;;4955976;28;20026;-88
2021/06/24 02:16:35;;;;;;;16.75;11.18;;;16.50;99.90;;;;;;4966887;28;20470;-87
2021/06/24 02:19:02;;;;;;;15.63;10.63;;;16.50;99.90;;;;;;4925777;28;20541;-88
2021/06/24 02:21:47;;;;;;;14.52;9.95;;;16.50;99.90;;;;;;4955523;29;20102;-88
2021/06/24 02:24:15;;;;;;;14.70;10.10;;;16.50;99.90;;;;;;4955726;28;20039;-88
2021/06/24 02:26:51;;;;;;;14.10;10.02;;;16.50;99.90;;;;;;4943671;28;20027;-88
2021/06/24 02:29:35;;;;;;;13.68;9.88;;;16.40;99.90;;;;;;4972746;28;20045;-88
2021/06/24 02:32:01;;;;;;;14.90;9.63;;;16.40;99.90;;;;;;4955819;28;20041;-88
2021/06/24 02:34:47;;;;;;;15.60;10.05;;;16.40;99.90;;;;;;4972623;28;20023;-88
2021/06/24 02:37:27;;;;;;;14.13;9.30;;;16.40;99.90;;;;;;4972222;28;20041;-88
2021/06/24 02:40:18;;;;;;;15.05;9.82;;;16.40;99.90;;;;;;4956383;28;20038;-88
2021/06/24 02:42:45;;;;;;;14.45;9.70;;;16.40;99.90;;;;;;4972019;28;20034;-88
2021/06/24 02:45:13;;;;;;;11.65;8.40;;;16.40;99.90;;;;;;4954632;28;20023;-89
2021/06/24 02:47:39;;;;;;;14.10;9.65;;;16.40;99.90;;;;;;4953969;28;20026;-88
2021/06/24 02:50:09;;;;;;;15.85;11.15;;;16.40;99.90;;;;;;4955494;28;20038;-88
2021/06/24 02:52:37;;;;;;;14.48;11.15;;;16.40;99.90;;;;;;4955066;28;20030;-88
2021/06/24 02:55:03;;;;;;;15.00;10.13;;;16.40;99.90;;;;;;4956447;28;20030;-88
2021/06/24 02:57:41;;;;;;;16.10;9.77;;;16.40;99.90;;;;;;4943181;28;20055;-88
2021/06/24 03:00:20;;;;;;;14.85;10.48;;;16.40;99.90;;;;;;4952601;28;20031;-87
2021/06/24 03:03:06;;;;;;;13.30;9.88;;;16.40;99.90;;;;;;4952240;28;20043;-88
2021/06/24 03:05:48;;;;;;;11.98;9.50;;;16.40;99.90;;;;;;4943315;28;20019;-88
2021/06/24 03:08:15;;;;;;;14.30;9.90;;;16.40;99.90;;;;;;4971498;28;20027;-88
2021/06/24 03:11:02;;;;;;;16.67;10.82;;;16.40;99.90;;;;;;4970498;28;20468;-87
2021/06/24 03:13:29;;;;;;;13.73;9.50;;;16.40;99.90;;;;;;4955336;28;20034;-87
2021/06/24 03:15:55;;;;;;;13.80;9.85;;;16.40;99.90;;;;;;4961288;28;20030;-87
2021/06/24 03:18:21;;;;;;;14.80;9.93;;;16.40;99.90;;;;;;4953847;28;20041;-88
2021/06/24 03:20:47;;;;;;;15.10;10.07;;;16.40;99.90;;;;;;4957050;28;20026;-87
2021/06/24 03:23:14;;;;;;;13.25;9.88;;;16.40;99.90;;;;;;4954200;28;20066;-88
2021/06/24 03:25:42;;;;;;;13.88;9.98;;;16.40;99.90;;;;;;4942731;28;20039;-89
2021/06/24 03:28:09;;;;;;;15.40;10.23;;;16.50;99.90;;;;;;4971952;28;20401;-88
2021/06/24 03:30:57;;;;;;;16.05;10.23;;;16.50;99.90;;;;;;4958438;28;20143;-88
2021/06/24 03:33:25;;;;;;;15.77;11.38;;;16.50;99.90;;;;;;4967304;28;20110;-87
2021/06/24 03:35:52;;;;;;;13.57;9.45;;;16.50;99.90;;;;;;4966334;28;20023;-88
2021/06/24 03:38:20;;;;;;;18.67;10.68;;;16.60;99.90;;;;;;4958956;28;20167;-87
2021/06/24 03:40:46;;;;;;;15.55;10.55;;;16.60;99.90;;;;;;4922690;28;20034;-88
2021/06/24 03:43:12;;;;;;;12.30;9.30;;;16.60;99.90;;;;;;4952537;28;20549;-87
2021/06/24 03:45:39;;;;;;;12.70;9.77;;;16.60;99.90;;;;;;4971402;28;20051;-88
2021/06/24 03:48:07;;;;;;;15.45;9.77;;;16.60;99.90;;;;;;4972752;28;20035;-88
2021/06/24 03:50:35;;;;;;;12.70;9.10;;;16.60;99.90;;;;;;4954353;28;20509;-88
2021/06/24 03:53:01;;;;;;;16.50;10.50;;;16.60;99.90;;;;;;4955263;28;20027;-88
2021/06/24 03:55:38;;;;;;;17.42;10.80;;;16.70;99.90;;;;;;4956582;28;20026;-87
2021/06/24 03:58:16;;;;;;;14.57;10.63;;;16.70;99.90;;;;;;4960851;28;20090;-90
2021/06/24 04:00:45;;;;;;;17.42;11.15;;;16.60;99.90;;;;;;4956579;28;20071;-88
2021/06/24 04:03:15;;;;;;;14.55;9.85;;;16.70;99.90;;;;;;4941435;28;20031;-88
2021/06/24 04:05:57;;;;;;;13.20;10.05;;;16.60;99.90;;;;;;4957931;28;20035;-88
2021/06/24 04:08:23;;;;;;;14.52;10.65;;;16.60;99.90;;;;;;4944878;28;20139;-88
2021/06/24 04:10:49;;;;;;;13.50;10.05;;;16.60;99.90;;;;;;4952983;28;20112;-88
2021/06/24 04:13:15;;;;;;;12.50;9.40;;;16.60;99.90;;;;;;4955940;28;21023;-88
2021/06/24 04:15:41;;;;;;;13.98;9.95;;;16.60;99.90;;;;;;4956025;28;20027;-87
2021/06/24 04:18:08;;;;;;;13.52;9.93;;;16.60;99.90;;;;;;4956175;28;20027;-88
2021/06/24 04:20:38;;;;;;;13.30;10.13;;;16.60;99.90;;;;;;4946582;28;20043;-88
2021/06/24 04:23:07;;;;;;;14.05;10.45;;;16.70;99.90;;;;;;4957043;28;20046;-88
2021/06/24 04:25:48;;;;;;;12.88;9.68;;;16.70;99.90;;;;;;4966392;28;20389;-88
2021/06/24 04:28:14;;;;;;;14.02;9.75;;;16.70;99.90;;;;;;4940111;28;20038;-89
2021/06/24 04:30:54;;;;;;;14.07;9.38;;;16.70;99.90;;;;;;4953945;28;20038;-88
2021/06/24 04:33:21;;;;;;;12.10;9.43;;;16.70;99.90;;;;;;4955848;28;20030;-88
2021/06/24 04:36:09;;;;;;;14.30;10.10;;;16.70;99.90;;;;;;4969809;28;20058;-87
2021/06/24 04:38:36;;;;;;;13.20;10.25;;;16.70;99.90;;;;;;4952609;28;20041;-88
2021/06/24 04:41:04;;;;;;;14.27;9.85;;;16.70;99.90;;;;;;4969047;28;20435;-88
2021/06/24 04:43:40;;;;;;;12.80;9.65;;;16.70;99.90;;;;;;4938148;29;20486;-88
2021/06/24 04:46:06;;;;;;;14.70;9.85;;;16.70;99.90;;;;;;4952929;28;20055;-88
2021/06/24 04:48:32;;;;;;;12.75;9.68;;;16.70;99.90;;;;;;4936857;28;20031;-88
2021/06/24 04:51:18;;;;;;;16.88;10.70;;;16.70;99.90;;;;;;4971821;28;20038;-89
2021/06/24 04:53:44;;;;;;;14.23;10.60;;;16.70;99.90;;;;;;4939466;28;20409;-87
2021/06/24 04:56:17;;;;;;;13.90;10.90;;;16.70;99.90;;;;;;4956744;28;20114;-89
2021/06/24 04:58:43;;;;;;;16.63;10.40;;;16.70;99.90;;;;;;4923968;28;20062;-88
2021/06/24 05:01:47;;;;;;;12.93;10.23;;;16.80;99.90;;;;;;4971118;28;20409;-89
2021/06/24 05:04:31;;;;;;;14.48;10.07;;;16.80;99.90;;;;;;4966597;28;20405;-88
2021/06/24 05:07:01;;;;;;;13.98;10.32;;;16.80;99.90;;;;;;4951954;28;20031;-87
2021/06/24 05:09:29;;;;;;;13.13;9.52;;;16.80;99.90;;;;;;4947221;28;20093;-88
2021/06/24 05:11:55;;;;;;;11.80;9.20;;;16.80;99.90;;;;;;4930004;28;20031;-89
2021/06/24 05:14:22;;;;;;;15.35;10.27;;;16.80;99.90;;;;;;4955677;28;20034;-88
2021/06/24 05:16:48;;;;;;;15.80;9.75;;;16.80;99.90;;;;;;4967575;28;20110;-87
2021/06/24 05:19:14;;;;;;;13.68;9.23;;;16.80;99.90;;;;;;4928579;28;20035;-88
2021/06/24 05:21:43;;;;;;;12.43;9.73;;;16.90;99.90;;;;;;4968687;28;20039;-93
2021/06/24 05:24:10;;;;;;;14.98;10.38;;;16.90;99.90;;;;;;4933697;29;20486;-90
2021/06/24 05:26:37;;;;;;;13.68;10.07;;;16.90;99.90;;;;;;4947167;28;20042;-90
2021/06/24 05:29:03;;;;;;;16.80;10.75;;;16.80;99.90;;;;;;4974222;28;20123;-91
2021/06/24 05:31:29;;;;;;;13.60;10.50;;;16.80;99.90;;;;;;4958441;28;20030;-91
2021/06/24 05:33:54;;;;;;;12.50;10.05;;;17.00;99.90;;;;;;4950560;28;20486;-90
2021/06/24 05:36:20;;;;;;;12.73;9.98;;;17.20;99.90;;;;;;4971949;28;20090;-90
2021/06/24 05:38:46;;;;;;;14.93;9.60;;;17.20;99.90;;;;;;4974655;28;20398;-90
2021/06/24 05:41:12;;;;;;;14.43;9.95;;;17.30;99.90;;;;;;4974266;28;20031;-90
2021/06/24 05:43:38;;;;;;;11.40;9.90;;;17.30;99.90;;;;;;4974782;28;20499;-90
2021/06/24 05:46:03;;;;;;;16.33;11.23;;;17.30;99.90;;;;;;4957968;28;20031;-90
2021/06/24 05:48:32;;;;;;;14.15;10.65;;;17.30;99.90;;;;;;4974123;28;20494;-90
2021/06/24 05:50:58;;;;;;;16.98;10.98;;;17.30;99.90;;;;;;4973754;28;20397;-88
2021/06/24 05:53:25;;;;;;;13.05;10.32;;;17.30;99.90;;;;;;4968036;28;20480;-90
2021/06/24 05:55:51;;;;;;;12.30;9.38;;;17.30;99.90;;;;;;4973034;28;20023;-90
2021/06/24 05:58:19;;;;;;;13.30;10.18;;;17.30;99.90;;;;;;4965114;28;20422;-90
2021/06/24 06:00:46;;;;;;;14.40;10.45;;;17.20;99.90;;;;;;4967610;28;20030;-89
2021/06/24 06:03:11;;;;;;;12.80;10.10;;;17.30;99.90;;;;;;4958081;28;20165;-89
2021/06/24 06:05:38;;;;;;;14.50;10.80;;;17.30;99.90;;;;;;4973175;28;20062;-90
2021/06/24 06:08:05;;;;;;;13.80;10.00;;;17.20;99.90;;;;;;4954310;28;20046;-91
2021/06/24 06:10:33;;;;;;;13.30;9.80;;;17.20;99.90;;;;;;4950615;28;20497;-89
2021/06/24 06:13:02;;;;;;;14.00;10.43;;;17.10;99.90;;;;;;4957362;28;20437;-91
2021/06/24 06:15:28;;;;;;;15.02;11.52;;;17.10;99.90;;;;;;4957604;28;20089;-89
2021/06/24 06:17:54;;;;;;;16.98;11.00;;;17.10;99.90;;;;;;4961289;28;20034;-89
2021/06/24 06:20:20;;;;;;;14.80;10.55;;;17.00;99.90;;;;;;4938778;28;20035;-90
2021/06/24 06:22:46;;;;;;;15.50;10.45;;;17.00;99.90;;;;;;4960525;28;20042;-89
2021/06/24 06:25:13;;;;;;;15.48;10.13;;;17.00;99.90;;;;;;4964438;28;20023;-89
2021/06/24 06:27:41;;;;;;;15.05;10.60;;;17.00;99.90;;;;;;4956676;28;20023;-90
2021/06/24 06:30:09;;;;;;;14.63;10.00;;;17.10;99.90;;;;;;4963318;28;20031;-89
2021/06/24 06:32:35;;;;;;;15.52;10.98;;;17.10;99.90;;;;;;4970335;28;20146;-88
2021/06/24 06:35:00;;;;;;;14.57;10.30;;;17.20;99.90;;;;;;4956465;28;20061;-90
2021/06/24 06:37:26;;;;;;;13.48;10.55;;;17.30;99.90;;;;;;4957530;28;20066;-90
2021/06/24 06:39:52;;;;;;;15.63;10.75;;;17.30;99.90;;;;;;4972623;28;20069;-90
2021/06/24 06:42:18;;;;;;;16.13;12.02;;;17.40;99.90;;;;;;4975963;28;20118;-89
2021/06/24 06:44:44;;;;;;;15.82;11.70;;;17.40;99.90;;;;;;4953271;28;20031;-89
2021/06/24 06:47:10;;;;;;;13.15;10.48;;;17.40;99.90;;;;;;4954916;28;20030;-90
2021/06/24 06:49:35;;;;;;;15.30;10.45;;;17.50;99.90;;;;;;4972474;28;20031;-90
2021/06/24 06:52:01;;;;;;;13.10;9.77;;;17.50;99.90;;;;;;4947889;29;20037;-91
2021/06/24 06:54:33;;;;;;;13.50;10.55;;;17.70;99.90;;;;;;4945522;28;20031;-89
2021/06/24 06:56:59;;;;;;;14.43;9.23;;;17.80;99.90;;;;;;4939780;28;20470;-90
2021/06/24 06:59:25;;;;;;;14.90;10.23;;;17.90;99.90;;;;;;4933170;28;20112;-90
2021/06/24 07:01:51;;;;;;;13.45;9.07;;;18.00;99.90;;;;;;4953040;28;20050;-89
2021/06/24 07:04:16;;;;;;;15.25;10.48;;;18.00;99.90;;;;;;4944293;28;20032;-88
2021/06/24 07:06:42;;;;;;;12.77;10.70;;;18.00;99.90;;;;;;4956037;28;20035;-89
2021/06/24 07:09:08;;;;;;;14.23;9.90;;;18.00;99.90;;;;;;4971150;28;20039;-88
2021/06/24 07:11:34;;;;;;;13.23;9.93;;;17.90;99.90;;;;;;4952271;29;20130;-88
2021/06/24 07:14:00;;;;;;;13.27;10.18;;;17.90;99.90;;;;;;4954509;28;20030;-88
2021/06/24 07:16:26;;;;;;;12.77;10.10;;;17.80;99.90;;;;;;4938103;28;20401;-91
2021/06/24 07:18:51;;;;;;;13.68;9.95;;;17.80;99.90;;;;;;4963473;28;20109;-87
2021/06/24 07:21:17;;;;;;;13.77;10.82;;;17.80;99.90;;;;;;4972161;28;20035;-89
2021/06/24 07:23:43;;;;;;;13.10;9.93;;;17.90;99.90;;;;;;4974328;28;20038;-86
2021/06/24 07:26:09;;;;;;;15.05;10.52;;;17.90;99.90;;;;;;4955844;28;20049;-89
2021/06/24 07:28:35;;;;;;;15.35;10.57;;;18.00;99.90;;;;;;4924251;28;20097;-89
2021/06/24 07:31:01;;;;;;;12.80;10.07;;;18.20;99.90;;;;;;4951796;28;20043;-89
2021/06/24 07:33:26;;;;;;;18.15;10.90;;;18.40;99.90;;;;;;4951997;28;20027;-88
2021/06/24 07:35:52;;;;;;;11.98;9.52;;;18.60;99.90;;;;;;4920805;28;20050;-89
2021/06/24 07:38:18;;;;;;;12.45;10.23;;;18.70;99.90;;;;;;4935796;29;20027;-88
2021/06/24 07:40:44;;;;;;;13.23;10.57;;;18.90;99.90;;;;;;4950089;28;20173;-88
2021/06/24 07:43:10;;;;;;;12.80;9.15;;;19.10;99.90;;;;;;4935879;28;20126;-88
2021/06/24 07:45:36;;;;;;;11.65;8.70;;;19.30;99.90;;;;;;4961508;28;20031;-86
2021/06/24 07:48:04;;;;;;;11.50;9.40;;;19.40;99.90;;;;;;4971257;28;20038;-88
2021/06/24 07:50:30;;;;;;;11.15;8.60;;;19.40;99.90;;;;;;4970528;28;20035;-88
2021/06/24 07:52:56;;;;;;;11.20;8.70;;;19.40;99.90;;;;;;4970336;28;20498;-87
2021/06/24 07:55:22;;;;;;;10.30;8.38;;;19.30;99.90;;;;;;4955193;28;20078;-88
2021/06/24 07:57:48;;;;;;;10.30;8.43;;;19.30;99.90;;;;;;4955429;28;20031;-88
2021/06/24 08:00:14;;;;;;;12.60;8.43;;;19.30;99.90;;;;;;4970393;28;20598;-87
2021/06/24 08:02:40;;;;;;;11.48;8.43;;;19.40;99.90;;;;;;4951605;28;20696;-88
2021/06/24 08:05:06;;;;;;;10.30;8.32;;;19.40;99.90;;;;;;4953339;28;20031;-89
2021/06/24 08:07:33;;;;;;;12.73;8.90;;;19.30;99.90;;;;;;4955309;28;20054;-88
2021/06/24 08:10:02;;;;;;;10.60;8.85;;;19.30;99.90;;;;;;4940798;28;20037;-87
2021/06/24 08:12:30;;;;;;;10.15;8.15;;;19.30;99.90;;;;;;4952785;28;20517;-89
2021/06/24 08:14:56;;;;;;;12.18;7.88;;;19.30;99.90;;;;;;4971203;28;20034;-89
2021/06/24 08:17:22;;;;;;;8.68;7.30;;;19.30;99.90;;;;;;4972561;28;20031;-88
2021/06/24 08:19:47;;;;;;;9.88;7.80;;;19.40;99.90;;;;;;4945724;28;20023;-89
2021/06/24 08:22:13;;;;;;;12.82;8.40;;;19.40;99.90;;;;;;4954241;28;20046;-88
2021/06/24 08:24:39;;;;;;;13.93;8.35;;;19.50;99.90;;;;;;4954606;28;20031;-89
2021/06/24 08:27:05;;;;;;;10.90;8.38;;;19.50;99.90;;;;;;4947136;28;20043;-87
2021/06/24 08:29:31;;;;;;;10.32;8.15;;;19.60;99.90;;;;;;4944625;28;20490;-87
2021/06/24 08:32:00;;;;;;;11.68;8.52;;;19.60;99.90;;;;;;4946982;28;20067;-88
2021/06/24 08:34:27;;;;;;;10.57;7.68;;;19.60;99.90;;;;;;4946515;28;20110;-89
2021/06/24 08:36:53;;;;;;;10.00;7.85;;;19.70;99.90;;;;;;4938030;28;20592;-88
2021/06/24 08:39:19;;;;;;;12.60;8.02;;;19.80;99.90;;;;;;4973614;28;20034;-87
2021/06/24 08:41:48;;;;;;;8.13;6.72;;;19.90;99.90;;;;;;4965886;28;20126;-89
2021/06/24 08:44:14;;;;;;;9.60;7.28;;;20.00;99.90;;;;;;4949343;28;20082;-89
2021/06/24 08:46:41;;;;;;;10.05;7.70;;;20.30;99.90;;;;;;4951753;28;20039;-89
2021/06/24 08:49:08;;;;;;;11.75;7.78;;;20.60;99.90;;;;;;4955269;28;20030;-87
2021/06/24 08:51:34;;;;;;;8.38;7.45;;;21.10;99.90;;;;;;4974594;28;20449;-89
2021/06/24 08:54:00;;;;;;;9.45;7.43;;;21.40;99.90;;;;;;4976013;28;20035;-90
2021/06/24 08:56:28;;;;;;;10.75;7.40;;;21.60;99.90;;;;;;4956008;28;20085;-89
2021/06/24 08:58:55;;;;;;;9.00;7.57;;;21.60;99.90;;;;;;4955736;28;20118;-90
2021/06/24 09:01:54;;;;;;;7.85;7.00;;;21.60;99.90;;;;;;4970089;28;20022;-88
2021/06/24 09:04:22;;;;;;;8.10;6.95;;;21.70;99.90;;;;;;4966656;28;20035;-89
2021/06/24 09:06:50;;;;;;;10.50;7.55;;;21.80;99.90;;;;;;4945795;28;20475;-88
2021/06/24 09:09:27;;;;;;;10.50;7.78;;;22.10;99.90;;;;;;4951133;29;20066;-89
2021/06/24 09:12:01;;;;;;;8.32;6.85;;;22.50;99.90;;;;;;4952825;28;20125;-89
2021/06/24 09:14:44;;;;;;;8.70;6.82;;;22.70;99.90;;;;;;4959907;28;20130;-88
2021/06/24 09:17:12;;;;;;;9.00;7.15;;;22.90;99.90;;;;;;4949997;28;20026;-91
2021/06/24 09:19:40;;;;;;;9.15;6.65;;;23.00;99.90;;;;;;4967906;28;20177;-90
2021/06/24 09:22:11;;;;;;;8.57;6.65;;;23.10;99.90;;;;;;4957036;28;20047;-91
2021/06/24 09:24:40;;;;;;;8.77;6.90;;;23.30;99.90;;;;;;4967875;28;20061;-89
2021/06/24 09:27:18;;;;;;;8.73;6.95;;;23.40;99.90;;;;;;4956679;28;20505;-89
2021/06/24 09:30:11;;;;;;;8.27;7.18;;;23.40;99.90;;;;;;4962942;28;20062;-89
2021/06/24 09:32:43;;;;;;;8.63;6.43;;;23.20;99.90;;;;;;4952741;28;20456;-90
2021/06/24 09:35:20;;;;;;;9.48;6.90;;;23.00;99.90;;;;;;4969313;28;20417;-88
2021/06/24 09:38:05;;;;;;;7.10;6.00;;;22.90;99.90;;;;;;4954877;28;20529;-91
2021/06/24 09:40:50;;;;;;;7.75;5.68;;;22.80;99.90;;;;;;4970372;28;20118;-91
2021/06/24 09:43:31;;;;;;;8.73;6.32;;;22.90;99.90;;;;;;4966195;28;20035;-90
2021/06/24 09:46:20;;;;;;;6.03;5.40;;;23.00;99.90;;;;;;4949502;28;20023;-91
2021/06/24 09:49:00;;;;;;;7.80;6.05;;;23.00;99.90;;;;;;4967277;28;20022;-87
2021/06/24 09:51:29;;;;;;;6.82;5.72;;;23.10;99.90;;;;;;4962079;28;20117;-90
2021/06/24 09:53:58;;;;;;;6.28;5.60;;;23.20;99.90;;;;;;4971061;28;20035;-89
2021/06/24 09:56:31;;;;;;;9.73;5.97;;;23.30;99.90;;;;;;4962511;28;20413;-89
2021/06/24 09:58:59;;;;;;;7.20;5.85;;;23.50;99.90;;;;;;4955378;28;20393;-88
2021/06/24 10:01:39;;;;;;;7.55;5.97;;;23.70;99.90;;;;;;4971255;28;20493;-89
2021/06/24 10:04:35;;;;;;;6.40;5.07;;;23.80;99.90;;;;;;4968354;28;20034;-89
2021/06/24 10:07:03;;;;;;;6.70;5.15;;;23.80;99.90;;;;;;4955891;28;20043;-89
2021/06/24 10:09:31;;;;;;;6.72;5.45;;;23.80;99.90;;;;;;4951499;28;20039;-90
2021/06/24 10:11:58;;;;;;;6.47;5.85;;;23.80;99.90;;;;;;4971535;28;20023;-91
2021/06/24 10:14:24;;;;;;;8.38;5.38;;;23.70;99.90;;;;;;4948457;28;20756;-90
2021/06/24 10:16:52;;;;;;;6.28;5.43;;;23.70;99.90;;;;;;4976607;28;20102;-89
2021/06/24 10:19:29;;;;;;;5.45;4.90;;;23.70;99.90;;;;;;4973187;28;20034;-88
2021/06/24 10:22:19;;;;;;;7.15;5.30;;;23.60;99.90;;;;;;4974224;28;20493;-87
2021/06/24 10:25:03;;;;;;;7.25;5.85;;;23.60;99.90;;;;;;4973321;28;20497;-85
2021/06/24 10:27:32;;;;;;;5.70;5.05;;;23.60;99.90;;;;;;4969267;28;20031;-90
2021/06/24 10:30:08;;;;;;;5.45;4.75;;;23.40;99.90;;;;;;4949866;28;20042;-86
2021/06/24 10:32:35;;;;;;;5.57;4.97;;;23.40;99.90;;;;;;4952279;28;20038;-87
2021/06/24 10:35:04;;;;;;;5.80;4.95;;;23.30;99.90;;;;;;4959891;28;20510;-86
2021/06/24 10:37:31;;;;;;;6.15;5.40;;;23.40;99.90;;;;;;4951989;28;20095;-87
2021/06/24 10:40:29;;;;;;;5.30;4.80;;;23.30;99.90;;;;;;4952557;28;20053;-87
2021/06/24 10:42:57;;;;;;;6.55;5.32;;;23.30;99.90;;;;;;4952428;28;20035;-86
2021/06/24 10:45:24;;;;;;;5.93;4.95;;;23.20;99.90;;;;;;4939255;29;20498;-87
2021/06/24 10:47:50;;;;;;;6.25;5.10;;;23.10;99.90;;;;;;4943537;28;20030;-86
2021/06/24 10:50:32;;;;;;;5.43;4.93;;;23.10;99.90;;;;;;4968975;28;20540;-84
2021/06/24 10:53:06;;;;;;;8.35;5.22;;;23.00;99.90;;;;;;4941279;29;20023;-87
2021/06/24 10:55:35;;;;;;;5.78;5.18;;;22.90;99.90;;;;;;4965866;28;20073;-86
2021/06/24 10:58:25;;;;;;;5.45;4.72;;;22.70;99.90;;;;;;4963495;28;20058;-88
2021/06/24 11:00:52;;;;;;;6.40;5.30;;;22.50;99.90;;;;;;4945818;28;20075;-86
2021/06/24 11:03:30;;;;;;;6.45;4.93;;;22.20;99.90;;;;;;4933550;28;20058;-87
2021/06/24 11:06:07;;;;;;;5.93;4.57;;;21.90;99.90;;;;;;4952467;28;20110;-88
2021/06/24 11:08:33;;;;;;;5.95;4.93;;;21.60;99.90;;;;;;4952567;28;20058;-88
2021/06/24 11:11:12;;;;;;;6.47;5.75;;;21.30;99.90;;;;;;4970728;28;20066;-89
2021/06/24 11:13:42;;;;;;;6.00;5.40;;;21.10;99.90;;;;;;4922508;28;20051;-87
2021/06/24 11:16:13;;;;;;;7.85;5.45;;;20.90;99.90;;;;;;4970437;28;20727;-88
2021/06/24 11:18:57;;;;;;;5.85;5.25;;;20.70;99.90;;;;;;4971034;28;20035;-87
2021/06/24 11:21:29;;;;;;;5.68;5.07;;;20.50;99.90;;;;;;4955595;28;20184;-87
2021/06/24 11:24:00;;;;;;;7.57;5.50;;;20.30;99.90;;;;;;4971431;28;20054;-89
2021/06/24 11:26:29;;;;;;;7.70;5.57;;;20.10;99.90;;;;;;4935867;29;20028;-90
2021/06/24 11:28:56;;;;;;;6.13;5.53;;;19.90;99.90;;;;;;4935366;28;20403;-91
2021/06/24 11:31:48;;;;;;;7.63;5.78;;;19.70;99.90;;;;;;4967923;28;20027;-91
2021/06/24 11:34:23;;;;;;;9.77;6.40;;;19.40;99.90;;;;;;4954518;28;20417;-90
2021/06/24 11:36:51;;;;;;;7.80;6.03;;;19.20;99.90;;;;;;4954546;28;20197;-91
2021/06/24 11:39:38;;;;;;;10.73;7.13;;;18.90;99.90;;;;;;4970491;28;20030;-90
2021/06/24 11:42:05;;;;;;;9.02;6.72;;;18.70;99.90;;;;;;4972331;28;20101;-89
2021/06/24 11:44:34;;;;;;;7.30;6.47;;;18.50;99.90;;;;;;4946932;28;20023;-90
2021/06/24 11:47:05;;;;;;;10.32;7.15;;;18.40;99.90;;;;;;4970370;28;20035;-90
2021/06/24 12:03:52;;;;;;;10.85;8.63;;;18.20;99.90;;;;;;4955045;28;20379;-89
2021/06/24 12:06:18;;;;;;;11.52;9.05;;;18.20;99.90;;;;;;4949546;28;20050;-87
2021/06/24 12:08:55;;;;;;;10.93;8.52;;;18.20;99.90;;;;;;4976898;28;20039;-90
2021/06/24 12:11:31;;;;;;;14.10;9.40;;;18.30;99.90;;;;;;4941117;28;20125;-90
2021/06/24 12:13:57;;;;;;;11.52;8.35;;;18.40;99.90;;;;;;4953869;28;20409;-88
2021/06/24 12:16:23;;;;;;;11.93;8.13;;;18.40;99.90;;;;;;4970019;28;20031;-91
2021/06/24 12:18:50;;;;;;;11.45;7.95;;;18.40;99.90;;;;;;4953377;28;20078;-91
2021/06/24 12:21:16;;;;;;;12.55;9.60;;;18.50;99.90;;;;;;4925130;29;20063;-90
2021/06/24 12:23:45;;;;;;;13.90;10.02;;;18.60;99.90;;;;;;4948059;28;20038;-91
2021/06/24 12:26:12;;;;;;;12.82;9.27;;;18.80;99.90;;;;;;4968631;28;20501;-90
2021/06/24 12:28:39;;;;;;;13.68;10.05;;;18.90;99.90;;;;;;4975056;28;20034;-90
2021/06/24 12:31:15;;;;;;;18.33;10.57;;;19.10;99.90;;;;;;4954548;28;20549;-89
2021/06/24 12:33:42;;;;;;;16.85;10.90;;;19.60;99.90;;;;;;4969329;28;20023;-88
2021/06/24 12:36:08;;;;;;;15.93;12.20;;;20.00;99.90;;;;;;4937539;28;20031;-86
2021/06/24 12:38:34;;;;;;;17.10;12.93;;;20.20;99.90;;;;;;4969292;28;20030;-89
2021/06/24 12:41:10;;;;;;;13.88;10.98;;;20.60;99.90;;;;;;4975205;28;20081;-87
2021/06/24 12:43:37;;;;;;;17.80;12.25;;;20.80;99.90;;;;;;4954026;28;20036;-88
2021/06/24 12:46:05;;;;;;;14.88;11.43;;;21.00;99.90;;;;;;4941271;28;20027;-86
2021/06/24 12:48:45;;;;;;;17.92;12.10;;;21.30;99.90;;;;;;4950173;28;20038;-89
2021/06/24 12:51:17;;;;;;;17.25;12.10;;;21.40;99.90;;;;;;4954353;28;20054;-87
2021/06/24 12:53:45;;;;;;;15.88;11.80;;;21.50;99.90;;;;;;4945677;28;20102;-86
2021/06/24 12:56:23;;;;;;;17.17;13.18;;;21.70;99.90;;;;;;4952530;28;20244;-88
2021/06/24 12:58:50;;;;;;;16.27;12.00;;;21.90;99.90;;;;;;4985154;28;20111;-88
2021/06/24 13:01:18;;;;;;;15.90;12.38;;;22.00;99.90;;;;;;4952239;28;20038;-91
2021/06/24 13:03:54;;;;;;;17.48;12.52;;;22.10;99.90;;;;;;4965650;28;20053;-88